createdAt,value
2018-12-21T00:00:26.713Z,993.0
2018-12-21T00:01:27.365Z,993.1
2018-12-21T00:02:28.019Z,993.1
2018-12-21T00:03:28.678Z,993.1
2018-12-21T00:04:29.331Z,993.1
2018-12-21T00:05:29.987Z,993.1
2018-12-21T00:06:30.643Z,993.1
2018-12-21T00:07:31.296Z,993.1
2018-12-21T00:08:31.950Z,993.1
2018-12-21T00:09:32.606Z,993.1
2018-12-21T00:10:33.262Z,993.1
2018-12-21T00:11:33.917Z,993.1
2018-12-21T00:12:34.572Z,993.1
2018-12-21T00:13:35.228Z,993.1
2018-12-21T00:14:35.928Z,993.1
2018-12-21T00:15:36.583Z,993.1
2018-12-21T00:16:37.239Z,993.1
2018-12-21T00:17:37.938Z,993.0
2018-12-21T00:18:38.593Z,993.1
2018-12-21T00:19:39.247Z,993.0
2018-12-21T00:20:39.903Z,993.0
2018-12-21T00:21:40.562Z,993.0
2018-12-21T00:22:41.216Z,993.0
2018-12-21T00:23:41.870Z,993.0
2018-12-21T00:24:42.569Z,993.0
2018-12-21T00:25:43.224Z,993.0
2018-12-21T00:26:43.880Z,993.0
2018-12-21T00:27:44.536Z,993.1
2018-12-21T00:28:45.239Z,993.0
2018-12-21T00:29:45.937Z,993.0
2018-12-21T00:30:46.595Z,993.0
2018-12-21T00:31:47.299Z,993.0
2018-12-21T00:32:47.957Z,993.0
2018-12-21T00:33:48.655Z,993.1
2018-12-21T00:34:49.310Z,993.0
2018-12-21T00:35:49.965Z,992.9
2018-12-21T00:36:50.620Z,993.0
2018-12-21T00:37:51.276Z,993.0
2018-12-21T00:38:51.929Z,993.0
2018-12-21T00:39:52.584Z,993.0
2018-12-21T00:40:53.239Z,993.0
2018-12-21T00:41:53.894Z,993.0
2018-12-21T00:42:54.549Z,993.0
2018-12-21T00:43:55.204Z,993.0
2018-12-21T00:44:55.859Z,992.9
2018-12-21T00:45:56.515Z,993.0
2018-12-21T00:46:57.171Z,993.0
2018-12-21T00:47:57.828Z,993.0
2018-12-21T00:48:58.527Z,993.0
2018-12-21T00:49:59.179Z,993.0
2018-12-21T00:50:59.835Z,993.0
2018-12-21T00:52:00.535Z,993.0
2018-12-21T00:53:01.189Z,993.0
2018-12-21T00:54:01.845Z,993.0
2018-12-21T00:55:02.501Z,993.0
2018-12-21T00:56:03.159Z,993.0
2018-12-21T00:57:03.816Z,993.1
2018-12-21T00:58:04.516Z,993.1
2018-12-21T00:59:05.171Z,993.1
2018-12-21T01:00:05.826Z,993.1
2018-12-21T01:01:06.481Z,993.1
2018-12-21T01:02:07.136Z,993.1
2018-12-21T01:03:07.791Z,993.0
2018-12-21T01:04:08.450Z,993.0
2018-12-21T01:05:09.102Z,993.0
2018-12-21T01:06:09.755Z,993.1
2018-12-21T01:07:10.412Z,993.1
2018-12-21T01:08:11.066Z,993.1
2018-12-21T01:09:11.720Z,993.1
2018-12-21T01:10:12.378Z,993.1
2018-12-21T01:11:13.032Z,993.1
2018-12-21T01:12:13.688Z,993.1
2018-12-21T01:13:14.341Z,993.1
2018-12-21T01:14:14.997Z,993.1
2018-12-21T01:15:15.653Z,993.1
2018-12-21T01:16:16.308Z,993.1
2018-12-21T01:17:16.963Z,993.1
2018-12-21T01:18:17.619Z,993.1
2018-12-21T01:19:18.275Z,993.1
2018-12-21T01:20:18.929Z,993.2
2018-12-21T01:21:19.583Z,993.1
2018-12-21T01:22:20.238Z,993.2
2018-12-21T01:23:20.896Z,993.2
2018-12-21T01:24:21.549Z,993.2
2018-12-21T01:25:22.204Z,993.2
2018-12-21T01:26:22.859Z,993.2
2018-12-21T01:27:23.517Z,993.2
2018-12-21T01:28:24.171Z,993.2
2018-12-21T01:29:24.873Z,993.2
2018-12-21T01:30:25.524Z,993.2
2018-12-21T01:31:26.178Z,993.1
2018-12-21T01:32:26.879Z,993.2
2018-12-21T01:33:27.535Z,993.1
2018-12-21T01:34:28.190Z,993.2
2018-12-21T01:35:28.846Z,993.1
2018-12-21T01:36:29.499Z,993.1
2018-12-21T01:37:30.200Z,993.1
2018-12-21T01:38:30.854Z,993.1
2018-12-21T01:39:31.509Z,993.1
2018-12-21T01:40:32.166Z,993.0
2018-12-21T01:41:32.821Z,993.0
2018-12-21T01:42:33.477Z,993.0
2018-12-21T01:43:34.130Z,993.0
2018-12-21T01:44:34.790Z,992.9
2018-12-21T01:45:35.440Z,992.9
2018-12-21T01:46:36.094Z,992.8
2018-12-21T01:47:36.750Z,992.8
2018-12-21T01:48:37.409Z,992.8
2018-12-21T01:49:38.063Z,992.8
2018-12-21T01:50:38.717Z,992.8
2018-12-21T01:51:46.927Z,992.8
2018-12-21T01:52:41.020Z,992.8
2018-12-21T01:53:41.674Z,992.8
2018-12-21T01:54:42.327Z,992.8
2018-12-21T01:55:42.985Z,992.8
2018-12-21T01:56:43.637Z,992.9
2018-12-21T01:57:44.359Z,992.9
2018-12-21T01:58:44.961Z,992.8
2018-12-21T01:59:45.617Z,992.8
2018-12-21T02:00:46.273Z,992.7
2018-12-21T02:01:46.928Z,992.8
2018-12-21T02:02:47.583Z,992.8
2018-12-21T02:03:48.242Z,992.8
2018-12-21T02:04:48.938Z,992.8
2018-12-21T02:05:49.592Z,992.8
2018-12-21T02:06:50.248Z,992.8
2018-12-21T02:07:50.904Z,992.8
2018-12-21T02:08:51.560Z,992.8
2018-12-21T02:09:52.216Z,992.7
2018-12-21T02:10:52.875Z,992.7
2018-12-21T02:11:53.524Z,992.8
2018-12-21T02:12:54.178Z,992.7
2018-12-21T02:13:54.834Z,992.7
2018-12-21T02:14:55.488Z,992.7
2018-12-21T02:15:56.155Z,992.7
2018-12-21T02:16:56.799Z,992.7
2018-12-21T02:17:57.453Z,992.7
2018-12-21T02:18:58.107Z,992.6
2018-12-21T02:19:58.762Z,992.6
2018-12-21T02:20:59.417Z,992.6
2018-12-21T02:22:00.117Z,992.6
2018-12-21T02:23:00.774Z,992.6
2018-12-21T02:24:01.430Z,992.6
2018-12-21T02:25:02.095Z,992.5
2018-12-21T02:26:02.835Z,992.5
2018-12-21T02:27:03.490Z,992.5
2018-12-21T02:28:04.144Z,992.5
2018-12-21T02:29:04.800Z,992.5
2018-12-21T02:30:05.455Z,992.5
2018-12-21T02:31:06.109Z,992.5
2018-12-21T02:32:06.765Z,992.4
2018-12-21T02:33:07.420Z,992.5
2018-12-21T02:34:08.080Z,992.5
2018-12-21T02:35:08.729Z,992.5
2018-12-21T02:36:09.384Z,992.5
2018-12-21T02:37:10.044Z,992.5
2018-12-21T02:38:10.736Z,992.5
2018-12-21T02:39:11.391Z,992.5
2018-12-21T02:40:12.049Z,992.4
2018-12-21T02:41:12.754Z,992.4
2018-12-21T02:42:13.412Z,992.5
2018-12-21T02:43:14.109Z,992.4
2018-12-21T02:44:14.763Z,992.5
2018-12-21T02:45:15.416Z,992.5
2018-12-21T02:46:16.071Z,992.5
2018-12-21T02:47:16.725Z,992.4
2018-12-21T02:48:17.382Z,992.4
2018-12-21T02:49:18.037Z,992.4
2018-12-21T02:50:18.692Z,992.4
2018-12-21T02:51:19.345Z,992.4
2018-12-21T02:52:19.999Z,992.4
2018-12-21T02:53:20.661Z,992.3
2018-12-21T02:54:21.356Z,992.3
2018-12-21T02:55:22.010Z,992.3
2018-12-21T02:56:22.670Z,992.3
2018-12-21T02:57:23.322Z,992.3
2018-12-21T02:58:23.977Z,992.3
2018-12-21T02:59:24.632Z,992.2
2018-12-21T03:00:25.286Z,992.2
2018-12-21T03:01:25.940Z,992.2
2018-12-21T03:02:26.593Z,992.2
2018-12-21T03:03:27.248Z,992.1
2018-12-21T03:04:27.903Z,992.1
2018-12-21T03:05:28.557Z,992.0
2018-12-21T03:06:29.211Z,992.0
2018-12-21T03:07:29.866Z,992.0
2018-12-21T03:08:30.523Z,991.9
2018-12-21T03:09:31.177Z,991.9
2018-12-21T03:10:31.832Z,991.9
2018-12-21T03:11:32.487Z,991.9
2018-12-21T03:12:33.144Z,991.8
2018-12-21T03:13:33.807Z,991.8
2018-12-21T03:14:34.514Z,991.8
2018-12-21T03:15:35.151Z,991.8
2018-12-21T03:16:35.809Z,991.9
2018-12-21T03:17:36.506Z,991.8
2018-12-21T03:18:37.160Z,991.8
2018-12-21T03:19:37.817Z,991.9
2018-12-21T03:20:38.474Z,991.8
2018-12-21T03:21:39.130Z,991.8
2018-12-21T03:22:39.828Z,991.8
2018-12-21T03:23:40.482Z,991.9
2018-12-21T03:24:41.137Z,991.9
2018-12-21T03:25:41.789Z,991.9
2018-12-21T03:26:42.444Z,991.9
2018-12-21T03:27:43.101Z,991.8
2018-12-21T03:28:43.755Z,991.8
2018-12-21T03:29:44.410Z,991.8
2018-12-21T03:30:45.064Z,991.8
2018-12-21T03:31:45.718Z,991.9
2018-12-21T03:32:46.372Z,991.8
2018-12-21T03:33:47.029Z,991.8
2018-12-21T03:34:47.687Z,991.8
2018-12-21T03:35:48.391Z,991.9
2018-12-21T03:36:49.042Z,991.8
2018-12-21T03:37:49.737Z,991.8
2018-12-21T03:38:50.394Z,991.8
2018-12-21T03:39:51.094Z,991.8
2018-12-21T03:40:51.804Z,991.8
2018-12-21T03:41:52.445Z,991.7
2018-12-21T03:42:53.101Z,991.7
2018-12-21T03:43:53.757Z,991.6
2018-12-21T03:44:54.412Z,991.7
2018-12-21T03:45:55.071Z,991.6
2018-12-21T03:46:55.723Z,991.6
2018-12-21T03:47:56.375Z,991.6
2018-12-21T03:48:57.034Z,991.7
2018-12-21T03:49:57.685Z,991.6
2018-12-21T03:50:58.341Z,991.6
2018-12-21T03:51:58.996Z,991.6
2018-12-21T03:52:59.694Z,991.6
2018-12-21T03:54:00.355Z,991.6
2018-12-21T03:55:01.005Z,991.5
2018-12-21T03:56:01.660Z,991.5
2018-12-21T03:57:02.314Z,991.5
2018-12-21T03:58:02.971Z,991.4
2018-12-21T03:59:03.625Z,991.5
2018-12-21T04:00:04.280Z,991.5
2018-12-21T04:01:04.938Z,991.5
2018-12-21T04:02:05.589Z,991.4
2018-12-21T04:03:06.293Z,991.4
2018-12-21T04:04:06.944Z,991.4
2018-12-21T04:05:07.642Z,991.4
2018-12-21T04:06:08.298Z,991.4
2018-12-21T04:07:08.952Z,991.4
2018-12-21T04:08:09.608Z,991.3
2018-12-21T04:09:10.263Z,991.3
2018-12-21T04:10:10.917Z,991.3
2018-12-21T04:11:11.571Z,991.3
2018-12-21T04:12:12.226Z,991.3
2018-12-21T04:13:12.882Z,991.3
2018-12-21T04:14:13.539Z,991.2
2018-12-21T04:15:14.195Z,991.2
2018-12-21T04:16:14.848Z,991.2
2018-12-21T04:17:15.502Z,991.3
2018-12-21T04:18:16.157Z,991.2
2018-12-21T04:19:16.810Z,991.3
2018-12-21T04:20:17.465Z,991.2
2018-12-21T04:21:18.122Z,991.3
2018-12-21T04:22:18.823Z,991.2
2018-12-21T04:23:19.478Z,991.2
2018-12-21T04:24:20.136Z,991.2
2018-12-21T04:25:20.786Z,991.2
2018-12-21T04:26:21.440Z,991.2
2018-12-21T04:27:22.097Z,991.2
2018-12-21T04:28:22.749Z,991.2
2018-12-21T04:29:23.405Z,991.1
2018-12-21T04:30:24.062Z,991.2
2018-12-21T04:31:24.717Z,991.1
2018-12-21T04:32:25.371Z,991.2
2018-12-21T04:33:26.025Z,991.1
2018-12-21T04:34:26.680Z,991.2
2018-12-21T04:35:27.335Z,991.1
2018-12-21T04:36:27.991Z,991.1
2018-12-21T04:37:28.691Z,991.1
2018-12-21T04:38:29.346Z,991.1
2018-12-21T04:39:30.001Z,991.1
2018-12-21T04:40:30.657Z,991.1
2018-12-21T04:41:31.312Z,991.1
2018-12-21T04:42:31.965Z,991.1
2018-12-21T04:43:32.621Z,991.1
2018-12-21T04:44:33.288Z,991.1
2018-12-21T04:45:33.976Z,991.0
2018-12-21T04:46:34.632Z,991.1
2018-12-21T04:47:35.286Z,991.0
2018-12-21T04:48:35.940Z,991.1
2018-12-21T04:49:36.594Z,991.0
2018-12-21T04:50:37.248Z,991.0
2018-12-21T04:51:37.904Z,991.0
2018-12-21T04:52:43.237Z,991.0
2018-12-21T04:53:40.204Z,991.0
2018-12-21T04:54:40.859Z,991.0
2018-12-21T04:55:41.514Z,991.0
2018-12-21T04:56:42.169Z,991.0
2018-12-21T04:57:42.877Z,991.0
2018-12-21T04:58:43.525Z,991.0
2018-12-21T04:59:44.183Z,991.0
2018-12-21T05:00:44.837Z,991.0
2018-12-21T05:01:45.495Z,991.0
2018-12-21T05:02:46.241Z,990.9
2018-12-21T05:03:46.901Z,990.9
2018-12-21T05:04:47.553Z,990.9
2018-12-21T05:05:48.217Z,990.9
2018-12-21T05:06:48.860Z,990.9
2018-12-21T05:07:49.514Z,990.9
2018-12-21T05:08:50.172Z,990.9
2018-12-21T05:09:50.827Z,990.8
2018-12-21T05:10:51.482Z,990.8
2018-12-21T05:11:52.181Z,990.8
2018-12-21T05:12:52.836Z,990.8
2018-12-21T05:13:53.490Z,990.8
2018-12-21T05:14:54.145Z,990.8
2018-12-21T05:15:54.799Z,990.8
2018-12-21T05:16:55.455Z,990.8
2018-12-21T05:17:56.116Z,990.8
2018-12-21T05:18:56.811Z,990.8
2018-12-21T05:19:57.466Z,990.9
2018-12-21T05:20:58.120Z,990.9
2018-12-21T05:21:58.778Z,990.8
2018-12-21T05:22:59.431Z,990.8
2018-12-21T05:24:00.086Z,990.8
2018-12-21T05:25:00.745Z,990.8
2018-12-21T05:26:01.401Z,990.8
2018-12-21T05:27:02.055Z,990.8
2018-12-21T05:28:02.712Z,990.8
2018-12-21T05:29:03.365Z,990.8
2018-12-21T05:30:04.021Z,990.8
2018-12-21T05:31:04.684Z,990.8
2018-12-21T05:32:05.380Z,990.8
2018-12-21T05:33:06.077Z,990.7
2018-12-21T05:34:06.734Z,990.7
2018-12-21T05:35:07.390Z,990.7
2018-12-21T05:36:08.043Z,990.6
2018-12-21T05:37:08.697Z,990.6
2018-12-21T05:38:09.353Z,990.6
2018-12-21T05:39:10.052Z,990.6
2018-12-21T05:40:10.707Z,990.5
2018-12-21T05:41:11.365Z,990.6
2018-12-21T05:42:12.018Z,990.6
2018-12-21T05:43:12.675Z,990.6
2018-12-21T05:44:13.328Z,990.5
2018-12-21T05:45:13.983Z,990.5
2018-12-21T05:46:14.637Z,990.5
2018-12-21T05:47:15.294Z,990.5
2018-12-21T05:48:15.950Z,990.5
2018-12-21T05:49:16.606Z,990.5
2018-12-21T05:50:17.260Z,990.4
2018-12-21T05:51:17.914Z,990.4
2018-12-21T05:52:18.570Z,990.4
2018-12-21T05:53:19.225Z,990.4
2018-12-21T05:54:19.880Z,990.4
2018-12-21T05:55:20.538Z,990.3
2018-12-21T05:56:21.196Z,990.3
2018-12-21T05:57:21.848Z,990.3
2018-12-21T05:58:22.503Z,990.3
2018-12-21T05:59:23.158Z,990.3
2018-12-21T06:00:23.812Z,990.3
2018-12-21T06:01:24.469Z,990.2
2018-12-21T06:02:25.124Z,990.2
2018-12-21T06:03:25.781Z,990.2
2018-12-21T06:04:26.436Z,990.2
2018-12-21T06:05:27.092Z,990.2
2018-12-21T06:06:27.746Z,990.2
2018-12-21T06:07:28.402Z,990.2
2018-12-21T06:08:29.057Z,990.2
2018-12-21T06:09:29.758Z,990.2
2018-12-21T06:10:30.415Z,990.2
2018-12-21T06:11:31.072Z,990.2
2018-12-21T06:12:31.726Z,990.2
2018-12-21T06:13:32.381Z,990.1
2018-12-21T06:14:33.037Z,990.1
2018-12-21T06:15:33.693Z,990.1
2018-12-21T06:16:34.347Z,990.1
2018-12-21T06:17:35.048Z,990.1
2018-12-21T06:18:35.704Z,990.1
2018-12-21T06:19:36.455Z,990.0
2018-12-21T06:20:37.113Z,990.1
2018-12-21T06:21:37.769Z,990.0
2018-12-21T06:22:38.423Z,989.9
2018-12-21T06:23:39.078Z,989.9
2018-12-21T06:24:39.732Z,989.9
2018-12-21T06:25:40.435Z,989.8
2018-12-21T06:26:41.088Z,989.9
2018-12-21T06:27:41.744Z,989.8
2018-12-21T06:28:42.402Z,989.7
2018-12-21T06:29:43.057Z,989.7
2018-12-21T06:30:43.712Z,989.7
2018-12-21T06:31:44.365Z,989.7
2018-12-21T06:32:45.021Z,989.6
2018-12-21T06:33:45.676Z,989.6
2018-12-21T06:34:46.331Z,989.6
2018-12-21T06:35:46.987Z,989.6
2018-12-21T06:36:47.644Z,989.4
2018-12-21T06:37:48.594Z,989.5
2018-12-21T06:38:49.250Z,989.4
2018-12-21T06:39:49.908Z,989.4
2018-12-21T06:40:50.561Z,989.3
2018-12-21T06:41:51.260Z,989.3
2018-12-21T06:42:51.916Z,989.3
2018-12-21T06:43:52.572Z,989.3
2018-12-21T06:44:53.228Z,989.3
2018-12-21T06:45:53.894Z,989.3
2018-12-21T06:46:54.537Z,989.2
2018-12-21T06:47:55.194Z,989.2
2018-12-21T06:48:55.848Z,989.3
2018-12-21T06:49:56.542Z,989.2
2018-12-21T06:50:57.205Z,989.2
2018-12-21T06:51:57.860Z,989.3
2018-12-21T06:52:58.516Z,989.1
2018-12-21T06:53:59.173Z,989.1
2018-12-21T06:54:59.827Z,989.1
2018-12-21T06:56:00.482Z,989.1
2018-12-21T06:57:01.184Z,989.1
2018-12-21T06:58:01.842Z,989.1
2018-12-21T06:59:02.541Z,989.0
2018-12-21T07:00:03.199Z,989.1
2018-12-21T07:01:03.897Z,989.0
2018-12-21T07:02:04.554Z,989.0
2018-12-21T07:03:05.210Z,988.9
2018-12-21T07:04:05.865Z,988.9
2018-12-21T07:05:06.520Z,988.9
2018-12-21T07:06:07.176Z,988.8
2018-12-21T07:07:07.832Z,988.8
2018-12-21T07:08:08.487Z,988.8
2018-12-21T07:09:09.144Z,988.8
2018-12-21T07:10:09.801Z,988.8
2018-12-21T07:11:10.460Z,988.7
2018-12-21T07:12:11.117Z,988.8
2018-12-21T07:13:11.772Z,988.7
2018-12-21T07:14:12.427Z,988.7
2018-12-21T07:15:13.084Z,988.7
2018-12-21T07:16:13.737Z,988.7
2018-12-21T07:17:14.392Z,988.7
2018-12-21T07:18:15.049Z,988.7
2018-12-21T07:19:15.758Z,988.7
2018-12-21T07:20:16.463Z,988.6
2018-12-21T07:21:17.113Z,988.5
2018-12-21T07:22:17.813Z,988.6
2018-12-21T07:23:26.875Z,988.5
2018-12-21T07:24:20.117Z,988.6
2018-12-21T07:25:20.773Z,988.5
2018-12-21T07:26:21.429Z,988.4
2018-12-21T07:27:22.085Z,988.4
2018-12-21T07:28:22.740Z,988.3
2018-12-21T07:29:23.398Z,988.4
2018-12-21T07:30:24.050Z,988.4
2018-12-21T07:31:24.709Z,988.3
2018-12-21T07:32:25.365Z,988.4
2018-12-21T07:33:26.022Z,988.3
2018-12-21T07:34:26.683Z,988.4
2018-12-21T07:35:27.335Z,988.4
2018-12-21T07:36:27.995Z,988.4
2018-12-21T07:37:28.650Z,988.4
2018-12-21T07:38:29.308Z,988.4
2018-12-21T07:39:32.259Z,988.4
2018-12-21T07:40:31.612Z,988.5
2018-12-21T07:41:32.269Z,988.4
2018-12-21T07:42:32.926Z,988.4
2018-12-21T07:43:33.584Z,988.4
2018-12-21T07:44:34.243Z,988.3
2018-12-21T07:45:34.901Z,988.3
2018-12-21T07:46:35.560Z,988.3
2018-12-21T07:47:36.218Z,988.2
2018-12-21T07:48:36.875Z,988.2
2018-12-21T07:49:37.533Z,988.3
2018-12-21T07:50:38.190Z,988.1
2018-12-21T07:51:38.893Z,988.2
2018-12-21T07:52:39.552Z,988.1
2018-12-21T07:53:40.215Z,988.0
2018-12-21T07:54:40.868Z,988.0
2018-12-21T07:55:41.525Z,988.0
2018-12-21T07:56:42.184Z,988.0
2018-12-21T07:57:42.841Z,988.2
2018-12-21T07:58:43.501Z,988.1
2018-12-21T07:59:44.163Z,987.9
2018-12-21T08:00:44.822Z,988.0
2018-12-21T08:01:45.481Z,987.9
2018-12-21T08:02:46.139Z,988.0
2018-12-21T08:03:46.798Z,987.9
2018-12-21T08:04:47.457Z,987.9
2018-12-21T08:05:48.162Z,987.8
2018-12-21T08:06:48.817Z,987.8
2018-12-21T08:07:49.520Z,987.9
2018-12-21T08:08:50.178Z,987.7
2018-12-21T08:09:50.836Z,987.7
2018-12-21T08:10:51.496Z,987.7
2018-12-21T08:11:52.153Z,987.6
2018-12-21T08:12:52.815Z,987.6
2018-12-21T08:13:53.470Z,987.5
2018-12-21T08:14:54.127Z,987.6
2018-12-21T08:15:54.785Z,987.5
2018-12-21T08:16:55.448Z,987.6
2018-12-21T08:17:56.105Z,987.5
2018-12-21T08:18:56.762Z,987.4
2018-12-21T08:19:57.423Z,987.5
2018-12-21T08:20:58.166Z,987.9
2018-12-21T08:21:58.795Z,987.6
2018-12-21T08:22:59.455Z,987.5
2018-12-21T08:24:00.116Z,987.6
2018-12-21T08:25:00.820Z,987.6
2018-12-21T08:26:01.483Z,987.6
2018-12-21T08:27:02.139Z,987.6
2018-12-21T08:28:02.804Z,987.6
2018-12-21T08:29:03.457Z,987.5
2018-12-21T08:30:04.116Z,987.6
2018-12-21T08:31:04.827Z,987.6
2018-12-21T08:32:05.480Z,987.5
2018-12-21T08:33:06.136Z,987.6
2018-12-21T08:34:06.791Z,987.7
2018-12-21T08:35:07.451Z,987.6
2018-12-21T08:36:08.107Z,987.7
2018-12-21T08:37:08.767Z,987.6
2018-12-21T08:38:09.426Z,987.5
2018-12-21T08:39:10.083Z,987.6
2018-12-21T08:40:10.741Z,987.6
2018-12-21T08:41:11.401Z,987.5
2018-12-21T08:42:12.106Z,987.5
2018-12-21T08:43:12.763Z,987.5
2018-12-21T08:44:13.423Z,987.6
2018-12-21T08:45:14.084Z,987.5
2018-12-21T08:46:14.743Z,987.5
2018-12-21T08:47:15.404Z,987.4
2018-12-21T08:48:16.063Z,987.5
2018-12-21T08:49:16.770Z,987.5
2018-12-21T08:50:17.470Z,987.5
2018-12-21T08:51:18.133Z,987.5
2018-12-21T08:52:18.794Z,987.6
2018-12-21T08:53:19.452Z,987.5
2018-12-21T08:54:20.114Z,987.6
2018-12-21T08:55:20.818Z,987.5
2018-12-21T08:56:21.479Z,987.5
2018-12-21T08:57:22.136Z,987.4
2018-12-21T08:58:22.794Z,987.4
2018-12-21T08:59:23.454Z,987.5
2018-12-21T09:00:24.113Z,987.3
2018-12-21T09:01:24.772Z,987.4
2018-12-21T09:02:25.479Z,987.3
2018-12-21T09:03:26.135Z,987.3
2018-12-21T09:04:32.241Z,987.2
2018-12-21T09:05:28.444Z,987.3
2018-12-21T09:06:29.100Z,987.1
2018-12-21T09:07:29.757Z,987.1
2018-12-21T09:08:30.415Z,987.1
2018-12-21T09:09:31.074Z,987.0
2018-12-21T09:10:31.733Z,987.0
2018-12-21T09:11:32.394Z,987.0
2018-12-21T09:12:33.048Z,987.0
2018-12-21T09:13:33.748Z,987.0
2018-12-21T09:14:34.407Z,986.9
2018-12-21T09:15:35.067Z,986.8
2018-12-21T09:16:35.725Z,986.9
2018-12-21T09:17:36.384Z,986.8
2018-12-21T09:18:37.044Z,986.8
2018-12-21T09:19:37.701Z,986.7
2018-12-21T09:20:38.358Z,986.7
2018-12-21T09:21:39.015Z,986.6
2018-12-21T09:22:39.672Z,986.5
2018-12-21T09:23:40.330Z,986.5
2018-12-21T09:24:41.034Z,986.5
2018-12-21T09:25:41.694Z,986.5
2018-12-21T09:26:42.352Z,986.5
2018-12-21T09:27:43.010Z,986.4
2018-12-21T09:28:43.666Z,986.4
2018-12-21T09:29:44.323Z,986.5
2018-12-21T09:30:44.982Z,986.3
2018-12-21T09:31:45.643Z,986.3
2018-12-21T09:32:46.301Z,986.3
2018-12-21T09:33:46.959Z,986.3
2018-12-21T09:34:47.623Z,986.3
2018-12-21T09:35:48.280Z,986.2
2018-12-21T09:36:48.939Z,986.1
2018-12-21T09:37:49.596Z,986.1
2018-12-21T09:38:50.254Z,986.2
2018-12-21T09:39:50.912Z,986.1
2018-12-21T09:40:51.569Z,986.1
2018-12-21T09:41:52.227Z,986.0
2018-12-21T09:42:53.527Z,985.9
2018-12-21T09:43:54.169Z,985.9
2018-12-21T09:44:54.829Z,985.9
2018-12-21T09:45:55.488Z,985.9
2018-12-21T09:46:56.147Z,985.9
2018-12-21T09:47:56.808Z,985.9
2018-12-21T09:48:57.466Z,985.7
2018-12-21T09:49:58.125Z,985.7
2018-12-21T09:50:58.783Z,985.7
2018-12-21T09:51:59.446Z,985.6
2018-12-21T09:53:00.101Z,985.6
2018-12-21T09:54:00.759Z,985.6
2018-12-21T09:55:01.418Z,985.6
2018-12-21T09:56:02.123Z,985.5
2018-12-21T09:57:02.828Z,985.5
2018-12-21T09:58:03.528Z,985.4
2018-12-21T09:59:04.189Z,985.5
2018-12-21T10:00:04.850Z,985.4
2018-12-21T10:01:05.509Z,985.4
2018-12-21T10:02:06.211Z,985.3
2018-12-21T10:03:06.872Z,985.2
2018-12-21T10:04:07.531Z,985.2
2018-12-21T10:05:08.191Z,985.1
2018-12-21T10:06:08.900Z,985.1
2018-12-21T10:07:09.567Z,985.1
2018-12-21T10:08:10.215Z,985.2
2018-12-21T10:09:10.919Z,985.0
2018-12-21T10:10:11.579Z,985.0
2018-12-21T10:11:12.239Z,984.9
2018-12-21T10:12:12.897Z,985.0
2018-12-21T10:13:13.556Z,985.1
2018-12-21T10:14:14.215Z,985.0
2018-12-21T10:15:14.874Z,984.9
2018-12-21T10:16:15.578Z,984.9
2018-12-21T10:17:16.237Z,985.0
2018-12-21T10:18:16.896Z,984.9
2018-12-21T10:19:17.556Z,984.8
2018-12-21T10:20:20.053Z,984.9
2018-12-21T10:21:19.867Z,984.8
2018-12-21T10:22:20.526Z,984.8
2018-12-21T10:23:21.183Z,984.7
2018-12-21T10:24:21.846Z,984.6
2018-12-21T10:25:22.505Z,984.7
2018-12-21T10:26:23.165Z,984.7
2018-12-21T10:27:23.825Z,984.7
2018-12-21T10:28:24.487Z,984.7
2018-12-21T10:29:25.155Z,984.6
2018-12-21T10:30:25.807Z,984.6
2018-12-21T10:31:26.469Z,984.5
2018-12-21T10:32:27.130Z,984.5
2018-12-21T10:33:27.834Z,984.6
2018-12-21T10:34:28.494Z,984.5
2018-12-21T10:35:29.154Z,984.4
2018-12-21T10:36:29.814Z,984.3
2018-12-21T10:37:30.487Z,984.3
2018-12-21T10:38:31.137Z,984.4
2018-12-21T10:39:31.797Z,984.3
2018-12-21T10:40:32.458Z,984.2
2018-12-21T10:41:33.120Z,984.2
2018-12-21T10:42:33.785Z,984.2
2018-12-21T10:43:34.482Z,984.2
2018-12-21T10:44:35.144Z,984.1
2018-12-21T10:45:41.590Z,984.1
2018-12-21T10:46:37.452Z,984.0
2018-12-21T10:47:38.114Z,984.0
2018-12-21T10:48:38.816Z,984.0
2018-12-21T10:49:39.476Z,984.0
2018-12-21T10:50:40.137Z,983.8
2018-12-21T10:51:40.798Z,983.9
2018-12-21T10:52:41.502Z,983.8
2018-12-21T10:53:46.517Z,983.8
2018-12-21T10:54:43.840Z,983.8
2018-12-21T10:55:44.515Z,983.7
2018-12-21T10:56:45.174Z,983.7
2018-12-21T10:57:45.832Z,983.8
2018-12-21T10:58:46.494Z,983.6
2018-12-21T10:59:47.151Z,983.7
2018-12-21T11:00:47.811Z,983.6
2018-12-21T11:01:48.471Z,983.5
2018-12-21T11:02:49.132Z,983.6
2018-12-21T11:03:49.793Z,983.5
2018-12-21T11:04:50.456Z,983.5
2018-12-21T11:05:51.114Z,983.5
2018-12-21T11:06:51.774Z,983.6
2018-12-21T11:07:52.436Z,983.4
2018-12-21T11:08:53.099Z,983.4
2018-12-21T11:09:53.761Z,983.3
2018-12-21T11:10:54.424Z,983.3
2018-12-21T11:11:55.095Z,983.3
2018-12-21T11:12:55.790Z,983.2
2018-12-21T11:13:56.453Z,983.1
2018-12-21T11:14:57.119Z,983.1
2018-12-21T11:15:57.819Z,983.0
2018-12-21T11:16:58.524Z,982.9
2018-12-21T11:17:59.181Z,982.9
2018-12-21T11:18:59.840Z,982.8
2018-12-21T11:20:00.502Z,982.9
2018-12-21T11:21:01.165Z,982.8
2018-12-21T11:22:01.825Z,982.7
2018-12-21T11:23:02.487Z,982.8
2018-12-21T11:24:03.193Z,982.7
2018-12-21T11:25:03.854Z,982.8
2018-12-21T11:26:04.514Z,982.7
2018-12-21T11:27:05.175Z,982.6
2018-12-21T11:28:05.836Z,982.5
2018-12-21T11:29:06.497Z,982.5
2018-12-21T11:30:07.157Z,982.4
2018-12-21T11:31:07.817Z,982.5
2018-12-21T11:32:08.479Z,982.3
2018-12-21T11:33:09.141Z,982.3
2018-12-21T11:34:09.804Z,982.3
2018-12-21T11:35:10.466Z,982.3
2018-12-21T11:36:11.163Z,982.2
2018-12-21T11:37:11.828Z,982.1
2018-12-21T11:38:12.490Z,982.1
2018-12-21T11:39:13.152Z,982.1
2018-12-21T11:40:13.813Z,982.0
2018-12-21T11:41:14.473Z,981.9
2018-12-21T11:42:15.135Z,981.8
2018-12-21T11:43:15.794Z,981.8
2018-12-21T11:44:16.456Z,981.7
2018-12-21T11:45:17.117Z,981.7
2018-12-21T11:46:17.780Z,981.7
2018-12-21T11:47:18.449Z,981.7
2018-12-21T11:48:19.102Z,981.5
2018-12-21T11:49:19.764Z,981.5
2018-12-21T11:50:20.425Z,981.6
2018-12-21T11:51:21.086Z,981.5
2018-12-21T11:52:21.746Z,981.5
2018-12-21T11:53:22.408Z,981.4
2018-12-21T11:54:23.067Z,981.4
2018-12-21T11:55:23.730Z,981.4
2018-12-21T11:56:24.394Z,981.4
2018-12-21T11:57:25.054Z,981.3
2018-12-21T11:58:25.715Z,981.4
2018-12-21T11:59:26.421Z,981.2
2018-12-21T12:00:27.135Z,981.3
2018-12-21T12:01:27.791Z,981.3
2018-12-21T12:02:28.452Z,981.2
2018-12-21T12:03:29.112Z,981.5
2018-12-21T12:04:29.774Z,981.3
2018-12-21T12:05:30.435Z,981.3
2018-12-21T12:06:31.096Z,981.3
2018-12-21T12:07:31.758Z,981.2
2018-12-21T12:08:32.419Z,981.1
2018-12-21T12:09:33.084Z,981.1
2018-12-21T12:10:33.741Z,981.1
2018-12-21T12:11:34.403Z,981.2
2018-12-21T12:12:35.065Z,981.1
2018-12-21T12:13:35.729Z,981.0
2018-12-21T12:14:36.389Z,981.2
2018-12-21T12:15:37.051Z,981.0
2018-12-21T12:16:37.711Z,981.1
2018-12-21T12:17:38.374Z,981.1
2018-12-21T12:18:39.036Z,981.0
2018-12-21T12:19:39.699Z,980.9
2018-12-21T12:20:40.405Z,980.9
2018-12-21T12:21:41.068Z,980.9
2018-12-21T12:22:41.731Z,980.9
2018-12-21T12:23:42.391Z,980.8
2018-12-21T12:24:43.052Z,980.8
2018-12-21T12:25:43.721Z,980.9
2018-12-21T12:26:44.739Z,980.9
2018-12-21T12:27:45.077Z,981.1
2018-12-21T12:28:45.738Z,980.8
2018-12-21T12:29:46.509Z,980.9
2018-12-21T12:30:47.102Z,980.8
2018-12-21T12:31:47.763Z,980.7
2018-12-21T12:32:48.423Z,980.8
2018-12-21T12:33:49.084Z,980.9
2018-12-21T12:34:49.744Z,980.8
2018-12-21T12:35:50.405Z,980.8
2018-12-21T12:36:51.067Z,980.7
2018-12-21T12:37:51.728Z,981.0
2018-12-21T12:38:52.388Z,980.8
2018-12-21T12:39:53.051Z,980.8
2018-12-21T12:40:53.714Z,980.8
2018-12-21T12:41:54.373Z,980.9
2018-12-21T12:42:55.033Z,980.8
2018-12-21T12:43:55.696Z,980.7
2018-12-21T12:44:56.408Z,980.6
2018-12-21T12:45:57.069Z,980.7
2018-12-21T12:46:57.730Z,980.6
2018-12-21T12:47:58.391Z,980.6
2018-12-21T12:48:59.055Z,980.7
2018-12-21T12:49:59.717Z,980.7
2018-12-21T12:51:00.420Z,980.7
2018-12-21T12:52:01.085Z,980.8
2018-12-21T12:53:01.745Z,980.8
2018-12-21T12:54:02.407Z,980.7
2018-12-21T12:55:03.376Z,980.8
2018-12-21T12:56:05.314Z,980.8
2018-12-21T12:57:05.669Z,980.7
2018-12-21T12:58:06.332Z,980.5
2018-12-21T12:59:06.995Z,980.5
2018-12-21T13:00:07.657Z,980.3
2018-12-21T13:01:08.319Z,980.4